Time;durP1;ratioP1;P1;durP2;ratioP2;P2;SDS_P1;SDS_P2;PMS_P1;PMS_P2;Temp;Humidity;BMP_temperature;BMP_pressure;BME280_temperature;BME280_humidity;BME280_pressure;Samples;Min_cycle;Max_cycle;Signal;HPM_P1;HPM_P2
2023/04/16 00:00:21;;;;;;;446.30;209.90;;;;;;;;;;5039567;28;20277;-58
2023/04/16 00:02:46;;;;;;;483.25;218.02;;;;;;;;;;5043852;28;20032;-55
2023/04/16 00:05:12;;;;;;;433.27;204.52;;;;;;;;;;5042987;28;20689;-55
2023/04/16 00:07:38;;;;;;;430.20;207.75;;;;;;;;;;5042829;28;20029;-56
2023/04/16 00:10:03;;;;;;;456.75;214.02;;;;;;;;;;5044509;28;20450;-57
2023/04/16 00:12:29;;;;;;;456.52;225.38;;;;;;;;;;5046174;28;20024;-58
2023/04/16 00:14:54;;;;;;;491.05;231.38;;;;;;;;;;5043736;28;20025;-57
2023/04/16 00:17:19;;;;;;;468.48;225.63;;;;;;;;;;5045819;28;20037;-59
2023/04/16 00:19:45;;;;;;;461.08;227.20;;;;;;;;;;5046303;28;20021;-58
2023/04/16 00:22:10;;;;;;;450.38;205.20;;;;;;;;;;5043603;28;20037;-58
2023/04/16 00:24:35;;;;;;;487.27;245.73;;;;;;;;;;5043193;28;20506;-58
2023/04/16 00:27:01;;;;;;;466.30;219.15;;;;;;;;;;5047742;28;20612;-58
2023/04/16 00:29:27;;;;;;;458.73;231.27;;;;;;;;;;5045759;28;20448;-58
2023/04/16 00:31:52;;;;;;;474.83;232.68;;;;;;;;;;5042892;28;20076;-58
2023/04/16 00:34:18;;;;;;;474.00;221.63;;;;;;;;;;5039612;28;20025;-58
2023/04/16 00:36:43;;;;;;;466.63;229.68;;;;;;;;;;5040837;28;20064;-57
2023/04/16 00:39:08;;;;;;;477.95;235.10;;;;;;;;;;5044096;28;20478;-56
2023/04/16 00:41:33;;;;;;;482.30;232.20;;;;;;;;;;5044177;28;20055;-57
2023/04/16 00:43:59;;;;;;;468.20;233.38;;;;;;;;;;5044021;28;20049;-54
2023/04/16 00:46:24;;;;;;;472.30;231.80;;;;;;;;;;5043239;28;20133;-57
2023/04/16 00:48:51;;;;;;;528.45;250.52;;;;;;;;;;5044782;28;20074;-55
2023/04/16 00:51:17;;;;;;;461.52;233.57;;;;;;;;;;5045097;28;20037;-56
2023/04/16 00:53:43;;;;;;;515.85;247.52;;;;;;;;;;5047519;28;20032;-58
2023/04/16 00:56:08;;;;;;;454.33;221.10;;;;;;;;;;5045952;28;20517;-56
2023/04/16 00:58:34;;;;;;;466.23;222.82;;;;;;;;;;5046997;28;20031;-56
2023/04/16 01:00:59;;;;;;;496.52;244.43;;;;;;;;;;5044228;28;20053;-56
2023/04/16 01:03:30;;;;;;;508.08;263.42;;;;;;;;;;5041418;28;20412;-55
2023/04/16 01:05:55;;;;;;;498.63;241.20;;;;;;;;;;5042227;28;20024;-57
2023/04/16 01:08:21;;;;;;;473.17;233.40;;;;;;;;;;5044147;28;20033;-56
2023/04/16 01:10:46;;;;;;;505.88;246.40;;;;;;;;;;5042149;28;20268;-57
2023/04/16 01:13:12;;;;;;;506.97;236.90;;;;;;;;;;5044333;28;20029;-55
2023/04/16 01:15:37;;;;;;;458.15;225.10;;;;;;;;;;5040626;28;20263;-56
2023/04/16 01:18:11;;;;;;;434.33;218.35;;;;;;;;;;5045080;28;20028;-57
2023/04/16 01:20:37;;;;;;;429.25;214.60;;;;;;;;;;5044629;28;20084;-56
2023/04/16 01:23:02;;;;;;;565.90;238.40;;;;;;;;;;5045968;28;20044;-57
2023/04/16 01:25:27;;;;;;;458.00;215.90;;;;;;;;;;5045396;28;20366;-56
2023/04/16 01:27:53;;;;;;;478.05;228.38;;;;;;;;;;5048696;28;20278;-56
2023/04/16 01:30:19;;;;;;;453.50;237.20;;;;;;;;;;5045322;28;20675;-56
2023/04/16 01:32:44;;;;;;;468.42;242.50;;;;;;;;;;5047407;28;20025;-56
2023/04/16 01:35:09;;;;;;;439.63;218.55;;;;;;;;;;5048212;28;20020;-55
2023/04/16 01:37:35;;;;;;;478.40;222.75;;;;;;;;;;5049570;28;20461;-56
2023/04/16 01:40:00;;;;;;;432.15;223.48;;;;;;;;;;5047600;28;20021;-58
2023/04/16 01:42:25;;;;;;;464.30;223.68;;;;;;;;;;5048315;28;21133;-56
2023/04/16 01:44:51;;;;;;;489.35;220.90;;;;;;;;;;5046351;28;20051;-58
2023/04/16 01:47:16;;;;;;;469.30;233.88;;;;;;;;;;5043063;28;20140;-57
2023/04/16 01:49:42;;;;;;;491.92;251.48;;;;;;;;;;5047742;28;20020;-57
2023/04/16 01:52:08;;;;;;;485.38;247.98;;;;;;;;;;5050717;28;20036;-57
2023/04/16 01:54:33;;;;;;;470.80;238.45;;;;;;;;;;5046852;28;20037;-55
2023/04/16 01:56:58;;;;;;;494.17;246.02;;;;;;;;;;5044520;28;20168;-57
2023/04/16 01:59:23;;;;;;;507.73;251.17;;;;;;;;;;5045611;28;20113;-56
2023/04/16 02:01:49;;;;;;;488.33;243.13;;;;;;;;;;5045667;28;20256;-57
2023/04/16 02:04:14;;;;;;;494.48;256.35;;;;;;;;;;5046825;28;20247;-56
2023/04/16 02:06:40;;;;;;;473.42;241.70;;;;;;;;;;5046127;28;20037;-57
2023/04/16 02:09:05;;;;;;;538.90;249.00;;;;;;;;;;5044433;28;20082;-57
2023/04/16 02:11:30;;;;;;;469.30;231.05;;;;;;;;;;5046596;28;20410;-56
2023/04/16 02:13:56;;;;;;;470.00;234.98;;;;;;;;;;5044668;28;20103;-56
2023/04/16 02:16:21;;;;;;;475.13;228.52;;;;;;;;;;5046963;28;20068;-56
2023/04/16 02:18:46;;;;;;;439.33;218.35;;;;;;;;;;5046617;28;20365;-55
2023/04/16 02:21:12;;;;;;;454.67;231.90;;;;;;;;;;5041908;28;20033;-56
2023/04/16 02:23:39;;;;;;;483.33;228.00;;;;;;;;;;5044394;28;20032;-57
2023/04/16 02:26:05;;;;;;;485.83;244.35;;;;;;;;;;5045520;28;20042;-55
2023/04/16 02:28:30;;;;;;;473.60;237.75;;;;;;;;;;5046562;28;20492;-56
2023/04/16 02:30:55;;;;;;;491.03;237.23;;;;;;;;;;5045162;28;20032;-55
2023/04/16 02:33:21;;;;;;;466.45;225.98;;;;;;;;;;5046132;28;20258;-57
2023/04/16 02:35:47;;;;;;;495.33;235.55;;;;;;;;;;5046670;28;20049;-56
2023/04/16 02:38:12;;;;;;;487.48;228.52;;;;;;;;;;5046947;28;20038;-55
2023/04/16 02:40:38;;;;;;;467.02;234.60;;;;;;;;;;5046091;28;20055;-57
2023/04/16 02:43:03;;;;;;;595.72;249.25;;;;;;;;;;5047531;28;20028;-55
2023/04/16 02:45:30;;;;;;;448.70;228.55;;;;;;;;;;5046705;28;20261;-57
2023/04/16 02:47:55;;;;;;;479.65;234.77;;;;;;;;;;5044026;28;20025;-57
2023/04/16 02:50:20;;;;;;;428.25;202.05;;;;;;;;;;5044534;28;20067;-58
2023/04/16 02:52:46;;;;;;;451.73;205.20;;;;;;;;;;5048575;28;20021;-57
2023/04/16 02:55:11;;;;;;;470.40;214.77;;;;;;;;;;5045336;28;20039;-57
2023/04/16 02:57:36;;;;;;;463.38;229.73;;;;;;;;;;5045823;28;20484;-56
2023/04/16 03:00:03;;;;;;;488.90;247.07;;;;;;;;;;5063980;28;20020;-56
2023/04/16 03:02:29;;;;;;;463.73;217.85;;;;;;;;;;5046437;28;20026;-57
2023/04/16 03:04:54;;;;;;;457.75;230.40;;;;;;;;;;5044001;28;20027;-58
2023/04/16 03:07:20;;;;;;;492.25;233.57;;;;;;;;;;5045403;28;20044;-58
2023/04/16 03:09:45;;;;;;;486.17;233.70;;;;;;;;;;5046100;28;20029;-55
2023/04/16 03:12:10;;;;;;;473.80;238.50;;;;;;;;;;5045986;28;20453;-57
2023/04/16 03:14:35;;;;;;;481.05;239.88;;;;;;;;;;5047118;28;20024;-56
2023/04/16 03:17:01;;;;;;;474.65;238.88;;;;;;;;;;5050219;28;20064;-54
2023/04/16 03:19:26;;;;;;;502.60;260.02;;;;;;;;;;5046304;28;20768;-57
2023/04/16 03:21:51;;;;;;;538.25;263.73;;;;;;;;;;5044260;28;20033;-56
2023/04/16 03:24:16;;;;;;;480.73;256.48;;;;;;;;;;5040302;28;20529;-55
2023/04/16 03:26:42;;;;;;;485.45;239.45;;;;;;;;;;5042350;28;20032;-57
2023/04/16 03:29:07;;;;;;;525.80;244.82;;;;;;;;;;5045591;28;20035;-55
2023/04/16 03:31:32;;;;;;;447.30;227.17;;;;;;;;;;5047193;28;20055;-55
2023/04/16 03:33:57;;;;;;;475.47;239.53;;;;;;;;;;5046436;28;20267;-56
2023/04/16 03:36:23;;;;;;;455.20;230.98;;;;;;;;;;5046911;28;20270;-56
2023/04/16 03:38:48;;;;;;;471.17;233.73;;;;;;;;;;5044600;28;20087;-55
2023/04/16 03:41:13;;;;;;;476.45;234.95;;;;;;;;;;5045168;28;20487;-56
2023/04/16 03:43:39;;;;;;;471.65;239.30;;;;;;;;;;5047035;28;20056;-56
2023/04/16 03:46:04;;;;;;;450.50;227.45;;;;;;;;;;5049907;28;20039;-56
2023/04/16 03:48:29;;;;;;;454.70;216.05;;;;;;;;;;5045392;28;20020;-55
2023/04/16 03:50:55;;;;;;;471.60;234.82;;;;;;;;;;5044838;28;20030;-56
2023/04/16 03:53:20;;;;;;;468.40;220.23;;;;;;;;;;5041902;28;20028;-55
2023/04/16 03:55:48;;;;;;;519.95;242.60;;;;;;;;;;5046345;28;20405;-55
2023/04/16 03:58:13;;;;;;;465.67;228.77;;;;;;;;;;5046560;28;20017;-55
2023/04/16 04:00:41;;;;;;;464.00;229.57;;;;;;;;;;5045781;28;20036;-55
2023/04/16 04:03:06;;;;;;;579.08;254.82;;;;;;;;;;5043973;28;20718;-55
2023/04/16 04:05:35;;;;;;;466.40;235.63;;;;;;;;;;5048099;28;20043;-55
2023/04/16 04:08:00;;;;;;;478.88;224.73;;;;;;;;;;5044898;28;20266;-57
2023/04/16 04:10:25;;;;;;;456.80;221.70;;;;;;;;;;5044266;28;20029;-55
2023/04/16 04:12:50;;;;;;;526.70;252.25;;;;;;;;;;5048567;28;20251;-55
2023/04/16 04:15:16;;;;;;;459.17;228.82;;;;;;;;;;5046607;28;20024;-56
2023/04/16 04:17:41;;;;;;;491.25;248.60;;;;;;;;;;5046528;28;20044;-54
2023/04/16 04:20:06;;;;;;;473.40;230.77;;;;;;;;;;5045180;28;20052;-55
2023/04/16 04:22:32;;;;;;;420.38;224.82;;;;;;;;;;5047424;28;20012;-56
2023/04/16 04:24:57;;;;;;;471.42;231.38;;;;;;;;;;5044883;28;20057;-55
2023/04/16 04:27:22;;;;;;;479.00;225.30;;;;;;;;;;5043638;28;20088;-56
2023/04/16 04:29:47;;;;;;;460.00;219.87;;;;;;;;;;5045733;28;20036;-55
2023/04/16 04:32:12;;;;;;;459.17;221.40;;;;;;;;;;5046276;28;20276;-55
2023/04/16 04:34:38;;;;;;;441.58;218.70;;;;;;;;;;5046213;28;20353;-56
2023/04/16 04:37:03;;;;;;;450.92;218.60;;;;;;;;;;5046885;28;20081;-55
2023/04/16 04:39:28;;;;;;;490.63;229.02;;;;;;;;;;5044157;28;20431;-55
2023/04/16 04:41:53;;;;;;;474.93;231.33;;;;;;;;;;5043878;28;20020;-55
2023/04/16 04:44:19;;;;;;;480.60;220.73;;;;;;;;;;5042581;28;20271;-54
2023/04/16 04:46:44;;;;;;;511.77;232.37;;;;;;;;;;5041362;28;20033;-56
2023/04/16 04:49:09;;;;;;;499.40;240.75;;;;;;;;;;5044766;28;20264;-56
2023/04/16 04:51:35;;;;;;;466.45;228.95;;;;;;;;;;5045415;28;20581;-57
2023/04/16 04:54:00;;;;;;;482.35;233.93;;;;;;;;;;5044897;28;20650;-57
2023/04/16 04:56:25;;;;;;;509.83;242.63;;;;;;;;;;5043387;28;20055;-57
2023/04/16 04:58:51;;;;;;;504.98;233.68;;;;;;;;;;5045206;28;20047;-56
2023/04/16 05:01:16;;;;;;;492.13;220.30;;;;;;;;;;5044915;28;20021;-55
2023/04/16 05:03:41;;;;;;;486.10;238.88;;;;;;;;;;5048885;28;20017;-56
2023/04/16 05:06:06;;;;;;;512.13;229.20;;;;;;;;;;5049045;28;20048;-56
2023/04/16 05:08:32;;;;;;;442.90;216.67;;;;;;;;;;5046978;28;20652;-58
2023/04/16 05:10:57;;;;;;;466.00;228.75;;;;;;;;;;5049202;28;20871;-58
2023/04/16 05:13:22;;;;;;;473.55;219.30;;;;;;;;;;5047400;28;20149;-57
2023/04/16 05:15:48;;;;;;;494.08;230.43;;;;;;;;;;5047148;28;20037;-56
2023/04/16 05:18:13;;;;;;;508.33;228.98;;;;;;;;;;5044501;28;20044;-56
2023/04/16 05:20:38;;;;;;;454.55;213.25;;;;;;;;;;5046987;28;20033;-58
2023/04/16 05:23:03;;;;;;;529.65;221.00;;;;;;;;;;5044469;28;20215;-57
2023/04/16 05:25:29;;;;;;;514.30;241.70;;;;;;;;;;5048394;28;20148;-56
2023/04/16 05:27:54;;;;;;;502.50;245.52;;;;;;;;;;5047755;28;20312;-57
2023/04/16 05:30:19;;;;;;;478.77;227.25;;;;;;;;;;5048035;28;20402;-57
2023/04/16 05:32:45;;;;;;;494.30;239.02;;;;;;;;;;5050037;28;20021;-56
2023/04/16 05:35:10;;;;;;;499.80;250.07;;;;;;;;;;5047394;28;20052;-56
2023/04/16 05:37:35;;;;;;;499.15;233.88;;;;;;;;;;5048536;28;20012;-57
2023/04/16 05:40:01;;;;;;;476.90;228.60;;;;;;;;;;5046942;28;20035;-57
2023/04/16 05:42:26;;;;;;;463.33;230.07;;;;;;;;;;5051576;28;20032;-56
2023/04/16 05:44:51;;;;;;;513.53;241.83;;;;;;;;;;5047940;28;20078;-54
2023/04/16 05:47:17;;;;;;;524.03;251.70;;;;;;;;;;5045848;28;20313;-55
2023/04/16 05:49:42;;;;;;;508.92;250.23;;;;;;;;;;5045158;28;20082;-56
2023/04/16 05:52:07;;;;;;;503.52;239.98;;;;;;;;;;5048015;28;20049;-58
2023/04/16 05:54:32;;;;;;;474.88;232.93;;;;;;;;;;5048155;28;20536;-56
2023/04/16 05:56:59;;;;;;;515.37;240.70;;;;;;;;;;5046472;28;20041;-57
2023/04/16 05:59:25;;;;;;;475.63;221.10;;;;;;;;;;5046329;28;20282;-57
2023/04/16 06:01:50;;;;;;;472.33;214.30;;;;;;;;;;5049184;28;20029;-57
2023/04/16 06:04:15;;;;;;;520.08;230.15;;;;;;;;;;5044869;28;20017;-57
2023/04/16 06:06:40;;;;;;;476.92;234.30;;;;;;;;;;5049039;28;20032;-57
2023/04/16 06:09:06;;;;;;;519.08;228.88;;;;;;;;;;5047903;28;20565;-57
2023/04/16 06:11:31;;;;;;;483.30;235.88;;;;;;;;;;5036267;28;20090;-57
2023/04/16 06:13:56;;;;;;;469.75;227.05;;;;;;;;;;5046936;28;20047;-54
2023/04/16 06:16:21;;;;;;;471.55;223.25;;;;;;;;;;5045122;28;20913;-57
2023/04/16 06:18:47;;;;;;;481.80;226.98;;;;;;;;;;5045749;28;20064;-56
2023/04/16 06:21:12;;;;;;;512.25;247.15;;;;;;;;;;5045719;28;20383;-57
2023/04/16 06:23:37;;;;;;;499.45;230.05;;;;;;;;;;5043995;28;20066;-56
2023/04/16 06:26:03;;;;;;;466.27;227.15;;;;;;;;;;5047699;28;20106;-56
2023/04/16 06:28:28;;;;;;;450.05;217.18;;;;;;;;;;5046837;28;20032;-57
2023/04/16 06:30:54;;;;;;;459.65;202.10;;;;;;;;;;5044756;28;20029;-55
2023/04/16 06:33:19;;;;;;;421.63;198.40;;;;;;;;;;5047473;28;20111;-55
2023/04/16 06:35:44;;;;;;;445.67;202.75;;;;;;;;;;5046610;28;20030;-56
2023/04/16 06:38:09;;;;;;;471.90;219.10;;;;;;;;;;5046340;28;20033;-58
2023/04/16 06:40:36;;;;;;;462.45;212.68;;;;;;;;;;5043785;28;20266;-57
2023/04/16 06:43:01;;;;;;;555.97;215.88;;;;;;;;;;5044326;28;20087;-55
2023/04/16 06:45:26;;;;;;;592.45;216.65;;;;;;;;;;5043228;28;20126;-56
2023/04/16 06:47:52;;;;;;;458.90;208.57;;;;;;;;;;5047623;28;20029;-57
2023/04/16 06:50:17;;;;;;;467.10;204.68;;;;;;;;;;5043407;28;20643;-57
2023/04/16 06:52:42;;;;;;;437.98;203.68;;;;;;;;;;5048599;28;20089;-56
2023/04/16 06:55:08;;;;;;;446.35;219.13;;;;;;;;;;5049588;28;20057;-57
2023/04/16 06:57:34;;;;;;;430.98;208.32;;;;;;;;;;5044433;28;20033;-57
2023/04/16 06:59:59;;;;;;;465.60;215.15;;;;;;;;;;5050953;28;20060;-58
2023/04/16 07:02:25;;;;;;;532.03;252.20;;;;;;;;;;5048270;28;20699;-58
2023/04/16 07:04:51;;;;;;;443.15;190.30;;;;;;;;;;5046696;28;20657;-57
2023/04/16 07:07:16;;;;;;;499.88;224.93;;;;;;;;;;5045683;28;20546;-57
2023/04/16 07:09:41;;;;;;;467.40;208.30;;;;;;;;;;5044636;28;20040;-58
2023/04/16 07:12:07;;;;;;;461.10;214.27;;;;;;;;;;5043611;28;20033;-58
2023/04/16 07:14:32;;;;;;;450.42;204.77;;;;;;;;;;5048255;28;20252;-58
2023/04/16 07:16:57;;;;;;;510.73;222.15;;;;;;;;;;5042839;28;20108;-57
2023/04/16 07:19:23;;;;;;;450.02;206.35;;;;;;;;;;5048853;28;20029;-55
2023/04/16 07:21:48;;;;;;;465.92;212.15;;;;;;;;;;5044916;28;20029;-58
2023/04/16 07:24:13;;;;;;;505.00;230.20;;;;;;;;;;5046140;28;20402;-57
2023/04/16 07:26:38;;;;;;;497.10;225.50;;;;;;;;;;5047136;28;20115;-55
2023/04/16 07:29:04;;;;;;;464.65;184.32;;;;;;;;;;5047749;28;20039;-56
2023/04/16 07:31:29;;;;;;;467.58;210.48;;;;;;;;;;5046657;28;20044;-55
2023/04/16 07:33:55;;;;;;;470.50;211.60;;;;;;;;;;5044705;28;20066;-58
2023/04/16 07:36:20;;;;;;;513.88;232.20;;;;;;;;;;5043751;28;20032;-56
2023/04/16 07:38:45;;;;;;;498.30;221.90;;;;;;;;;;5045867;28;20029;-56
2023/04/16 07:41:10;;;;;;;514.77;231.53;;;;;;;;;;5045057;28;20037;-55
2023/04/16 07:43:35;;;;;;;495.30;226.50;;;;;;;;;;5044515;28;20764;-58
2023/04/16 07:46:01;;;;;;;455.30;204.85;;;;;;;;;;5044661;28;20116;-56
2023/04/16 07:48:26;;;;;;;526.67;232.63;;;;;;;;;;5048072;28;20052;-57
2023/04/16 07:50:51;;;;;;;488.23;226.23;;;;;;;;;;5046392;28;20414;-57
2023/04/16 07:53:16;;;;;;;532.45;235.73;;;;;;;;;;5044101;28;20025;-57
2023/04/16 07:55:42;;;;;;;526.83;230.57;;;;;;;;;;5045708;28;20302;-58
2023/04/16 07:58:08;;;;;;;500.27;211.38;;;;;;;;;;5045280;28;20278;-56
2023/04/16 08:00:33;;;;;;;452.30;196.25;;;;;;;;;;5044187;28;20028;-55
2023/04/16 08:02:59;;;;;;;553.65;219.80;;;;;;;;;;5046424;28;20031;-56
2023/04/16 08:05:24;;;;;;;470.50;203.30;;;;;;;;;;5046032;28;20580;-58
2023/04/16 08:07:49;;;;;;;464.35;185.35;;;;;;;;;;5043128;28;20033;-59
2023/04/16 08:10:15;;;;;;;488.73;210.57;;;;;;;;;;5045444;28;20056;-56
2023/04/16 08:12:40;;;;;;;515.80;202.80;;;;;;;;;;5043905;28;20013;-56
2023/04/16 08:15:06;;;;;;;490.63;198.10;;;;;;;;;;5038416;28;20120;-57
2023/04/16 08:17:33;;;;;;;470.00;197.82;;;;;;;;;;5042924;28;20060;-58
2023/04/16 08:19:58;;;;;;;502.25;215.93;;;;;;;;;;5046328;28;20024;-55
2023/04/16 08:22:23;;;;;;;504.87;225.07;;;;;;;;;;5046304;28;20449;-56
2023/04/16 08:24:49;;;;;;;525.63;220.40;;;;;;;;;;5048158;28;20251;-57
2023/04/16 08:27:15;;;;;;;507.13;207.00;;;;;;;;;;5043978;28;20199;-57
2023/04/16 08:29:40;;;;;;;515.72;217.05;;;;;;;;;;5043270;28;20024;-57
2023/04/16 08:32:05;;;;;;;506.83;212.40;;;;;;;;;;5042907;28;20095;-57
2023/04/16 08:34:30;;;;;;;504.02;213.20;;;;;;;;;;5048826;28;20033;-57
2023/04/16 08:36:56;;;;;;;457.65;205.00;;;;;;;;;;5049983;28;20250;-55
2023/04/16 08:39:21;;;;;;;505.23;203.77;;;;;;;;;;5048317;28;20052;-57
2023/04/16 08:41:46;;;;;;;524.13;209.80;;;;;;;;;;5046931;28;20037;-57
2023/04/16 08:44:30;;;;;;;519.47;215.52;;;;;;;;;;5047101;28;20027;-55
2023/04/16 08:46:57;;;;;;;590.53;223.45;;;;;;;;;;5044954;28;20077;-56
2023/04/16 08:49:23;;;;;;;489.00;192.02;;;;;;;;;;5046661;28;20024;-57
2023/04/16 08:51:52;;;;;;;514.70;188.15;;;;;;;;;;5045678;28;20025;-57
2023/04/16 08:54:42;;;;;;;534.03;214.73;;;;;;;;;;5047759;28;20017;-57
2023/04/16 08:57:09;;;;;;;535.88;215.18;;;;;;;;;;5048839;28;20039;-60
2023/04/16 08:59:34;;;;;;;491.52;202.45;;;;;;;;;;5048453;28;20051;-57
2023/04/16 09:02:00;;;;;;;528.60;213.32;;;;;;;;;;5048960;28;20394;-58
2023/04/16 09:04:27;;;;;;;490.27;203.70;;;;;;;;;;5048109;28;20018;-57
2023/04/16 09:06:53;;;;;;;540.25;217.68;;;;;;;;;;5048106;28;20125;-57
2023/04/16 09:09:19;;;;;;;543.00;230.80;;;;;;;;;;5046260;28;20414;-57
2023/04/16 09:11:44;;;;;;;537.47;216.02;;;;;;;;;;5044605;28;20399;-58
2023/04/16 09:14:11;;;;;;;483.77;202.68;;;;;;;;;;5046162;28;20313;-55
2023/04/16 09:16:36;;;;;;;522.42;220.05;;;;;;;;;;5050149;28;20029;-57
2023/04/16 09:19:01;;;;;;;496.40;189.60;;;;;;;;;;5045949;28;20064;-56
2023/04/16 09:21:26;;;;;;;530.97;199.52;;;;;;;;;;5048316;28;20082;-57
2023/04/16 09:23:52;;;;;;;475.40;191.90;;;;;;;;;;5045962;28;20163;-57
2023/04/16 09:26:17;;;;;;;464.23;189.93;;;;;;;;;;5044223;28;20119;-59
2023/04/16 09:28:44;;;;;;;485.88;198.57;;;;;;;;;;5047529;28;20027;-58
2023/04/16 09:31:11;;;;;;;515.63;207.77;;;;;;;;;;5045718;28;20037;-58
2023/04/16 09:33:37;;;;;;;497.50;206.27;;;;;;;;;;5047208;28;20082;-56
2023/04/16 09:36:02;;;;;;;457.17;191.18;;;;;;;;;;5048786;28;20036;-56
2023/04/16 09:38:48;;;;;;;458.08;190.80;;;;;;;;;;5048045;28;20156;-58
2023/04/16 09:41:15;;;;;;;503.40;204.80;;;;;;;;;;5044033;28;20065;-57
2023/04/16 09:43:40;;;;;;;493.55;204.52;;;;;;;;;;5044517;28;20013;-58
2023/04/16 09:46:10;;;;;;;489.45;201.52;;;;;;;;;;5042887;28;20267;-56
2023/04/16 09:48:35;;;;;;;532.08;208.85;;;;;;;;;;5047144;28;20029;-54
2023/04/16 09:51:00;;;;;;;528.17;222.27;;;;;;;;;;5045345;28;20091;-54
2023/04/16 09:53:26;;;;;;;480.05;204.55;;;;;;;;;;5045613;28;20712;-56
2023/04/16 09:55:55;;;;;;;447.77;173.85;;;;;;;;;;5046885;28;20091;-56
2023/04/16 09:58:23;;;;;;;469.58;177.30;;;;;;;;;;5045660;28;20032;-56
2023/04/16 10:00:48;;;;;;;439.67;165.77;;;;;;;;;;5048545;28;20482;-57
2023/04/16 10:03:13;;;;;;;467.50;179.95;;;;;;;;;;5046903;28;20032;-55
2023/04/16 10:05:39;;;;;;;452.88;177.75;;;;;;;;;;5044575;28;20031;-57
2023/04/16 10:08:10;;;;;;;469.90;201.05;;;;;;;;;;5045855;28;20025;-55
2023/04/16 10:10:35;;;;;;;632.78;204.55;;;;;;;;;;5029491;28;20535;-56
2023/04/16 10:13:01;;;;;;;592.55;169.85;;;;;;;;;;5038815;28;20029;-57
2023/04/16 10:15:26;;;;;;;528.97;207.05;;;;;;;;;;5044623;28;20056;-57
2023/04/16 10:17:52;;;;;;;501.77;184.45;;;;;;;;;;5048737;28;20064;-58
2023/04/16 10:20:18;;;;;;;477.65;183.88;;;;;;;;;;5042840;28;20060;-58
2023/04/16 10:22:43;;;;;;;475.75;176.55;;;;;;;;;;5045039;28;20032;-57
2023/04/16 10:25:09;;;;;;;421.25;153.13;;;;;;;;;;5041164;28;20846;-56
2023/04/16 10:27:35;;;;;;;424.27;163.43;;;;;;;;;;5044746;28;20021;-57
2023/04/16 10:30:01;;;;;;;433.48;169.77;;;;;;;;;;5044679;28;20021;-57
2023/04/16 10:32:27;;;;;;;401.05;163.57;;;;;;;;;;5044653;28;20032;-58
2023/04/16 10:34:53;;;;;;;470.13;184.95;;;;;;;;;;5041345;28;20020;-57
2023/04/16 10:37:18;;;;;;;456.75;180.25;;;;;;;;;;5044364;28;20049;-58
2023/04/16 10:39:44;;;;;;;542.10;199.23;;;;;;;;;;5041885;28;20009;-58
2023/04/16 10:42:10;;;;;;;462.02;171.93;;;;;;;;;;5042426;28;20264;-56
2023/04/16 10:44:36;;;;;;;438.92;173.32;;;;;;;;;;5046789;28;20050;-57
2023/04/16 10:47:01;;;;;;;414.98;157.15;;;;;;;;;;5048943;28;20029;-55
2023/04/16 10:49:26;;;;;;;411.52;150.82;;;;;;;;;;5046343;28;20179;-56
2023/04/16 10:51:58;;;;;;;445.90;170.18;;;;;;;;;;5048422;28;20067;-56
2023/04/16 10:54:24;;;;;;;;;;;;;;;;;;5050577;28;20045;-57
2023/04/16 10:56:50;;;;;;;425.55;162.40;;;;;;;;;;5044611;28;19917;-58
2023/04/16 10:59:19;;;;;;;425.05;166.98;;;;;;;;;;5045851;28;20032;-58
2023/04/16 11:01:45;;;;;;;426.08;160.20;;;;;;;;;;5048170;28;20111;-58
2023/04/16 11:04:19;;;;;;;444.95;176.07;;;;;;;;;;5041847;28;20032;-59
2023/04/16 11:07:03;;;;;;;485.48;179.73;;;;;;;;;;5044731;28;20115;-56
2023/04/16 11:09:41;;;;;;;480.00;173.82;;;;;;;;;;5033489;28;20482;-59
2023/04/16 11:12:07;;;;;;;440.73;171.18;;;;;;;;;;5041265;28;20507;-56
2023/04/16 11:14:32;;;;;;;445.05;174.02;;;;;;;;;;5044139;28;20028;-58
2023/04/16 11:16:57;;;;;;;467.55;165.73;;;;;;;;;;5045106;28;20155;-57
2023/04/16 11:19:22;;;;;;;452.20;178.43;;;;;;;;;;5045832;28;20056;-57
2023/04/16 11:21:48;;;;;;;436.65;171.07;;;;;;;;;;5041672;28;20422;-56
2023/04/16 11:24:13;;;;;;;441.50;161.07;;;;;;;;;;5042002;28;20020;-55
2023/04/16 11:26:38;;;;;;;516.92;182.68;;;;;;;;;;5041110;28;20033;-58
2023/04/16 11:29:12;;;;;;;529.73;187.23;;;;;;;;;;5043229;28;20470;-56
2023/04/16 11:31:37;;;;;;;471.20;183.32;;;;;;;;;;5043471;28;20274;-56
2023/04/16 11:34:02;;;;;;;439.77;172.02;;;;;;;;;;5044206;28;20021;-60
2023/04/16 11:36:41;;;;;;;461.75;167.45;;;;;;;;;;5043484;28;20032;-56
2023/04/16 11:39:06;;;;;;;537.38;170.38;;;;;;;;;;5039186;28;20460;-58
2023/04/16 11:41:31;;;;;;;514.77;139.53;;;;;;;;;;5039582;28;20521;-58
2023/04/16 11:43:56;;;;;;;448.63;151.83;;;;;;;;;;5039431;28;20336;-59
2023/04/16 11:46:21;;;;;;;443.70;157.20;;;;;;;;;;5040122;28;20305;-58
2023/04/16 11:48:47;;;;;;;438.40;153.27;;;;;;;;;;5040238;28;20059;-57
2023/04/16 11:51:12;;;;;;;431.97;154.57;;;;;;;;;;5042350;28;20267;-57
2023/04/16 11:53:44;;;;;;;456.13;150.57;;;;;;;;;;5039959;28;20728;-56
2023/04/16 11:56:09;;;;;;;413.08;129.38;;;;;;;;;;5042087;28;20124;-59
2023/04/16 11:58:34;;;;;;;396.70;130.70;;;;;;;;;;5044765;28;20402;-56
2023/04/16 12:01:01;;;;;;;432.63;149.57;;;;;;;;;;5041377;28;20654;-56
2023/04/16 12:03:39;;;;;;;433.20;150.27;;;;;;;;;;5039663;28;20878;-58
2023/04/16 12:09:23;;;;;;;527.00;155.55;;;;;;;;;;5036147;28;20674;-57
2023/04/16 12:11:49;;;;;;;414.65;120.97;;;;;;;;;;5031255;28;20572;-55
2023/04/16 12:14:14;;;;;;;408.77;124.15;;;;;;;;;;5038235;28;20502;-57
2023/04/16 12:16:39;;;;;;;429.83;138.23;;;;;;;;;;5039846;28;20037;-56
2023/04/16 12:19:05;;;;;;;484.27;160.37;;;;;;;;;;5039040;28;20036;-57
2023/04/16 12:21:37;;;;;;;425.88;155.75;;;;;;;;;;5041738;28;20947;-56
2023/04/16 12:24:02;;;;;;;419.13;152.63;;;;;;;;;;5038984;28;20115;-55
2023/04/16 12:26:34;;;;;;;482.45;163.50;;;;;;;;;;5040347;28;20082;-56
2023/04/16 12:29:00;;;;;;;;;;;;;;;;;;5041564;28;20054;-58
2023/04/16 12:31:37;;;;;;;476.48;163.40;;;;;;;;;;5038803;28;19912;-57
2023/04/16 12:34:02;;;;;;;507.52;178.23;;;;;;;;;;5040795;28;20048;-57
2023/04/16 12:36:28;;;;;;;495.70;162.00;;;;;;;;;;5039076;28;20124;-57
2023/04/16 12:38:53;;;;;;;463.87;149.30;;;;;;;;;;5042719;28;20271;-57
2023/04/16 12:41:18;;;;;;;484.70;148.47;;;;;;;;;;5039884;28;20270;-58
2023/04/16 12:43:43;;;;;;;509.38;163.65;;;;;;;;;;5043160;28;20269;-58
2023/04/16 12:46:08;;;;;;;453.40;153.90;;;;;;;;;;5042196;28;20033;-58
2023/04/16 12:48:34;;;;;;;422.73;162.17;;;;;;;;;;5041797;28;20259;-58
2023/04/16 12:50:59;;;;;;;479.05;178.38;;;;;;;;;;5042507;28;20266;-57
2023/04/16 12:53:24;;;;;;;439.00;175.82;;;;;;;;;;5041726;28;20041;-57
2023/04/16 12:55:50;;;;;;;466.15;180.90;;;;;;;;;;5040238;28;20561;-58
2023/04/16 12:58:15;;;;;;;436.88;166.80;;;;;;;;;;5044077;28;20452;-57
2023/04/16 13:00:41;;;;;;;477.67;182.63;;;;;;;;;;5038238;28;20044;-57
2023/04/16 13:03:06;;;;;;;549.60;169.75;;;;;;;;;;5042472;28;20051;-58
2023/04/16 13:05:31;;;;;;;516.58;180.38;;;;;;;;;;5041215;28;20509;-57
2023/04/16 13:07:57;;;;;;;497.93;168.80;;;;;;;;;;5039188;28;20028;-58
2023/04/16 13:10:22;;;;;;;489.55;156.15;;;;;;;;;;5040962;28;20749;-59
2023/04/16 13:12:47;;;;;;;467.92;159.20;;;;;;;;;;5038466;28;20075;-60
2023/04/16 13:15:13;;;;;;;481.13;164.23;;;;;;;;;;5040419;28;20033;-59
2023/04/16 13:17:38;;;;;;;456.00;152.70;;;;;;;;;;5043073;28;20315;-60
2023/04/16 13:20:03;;;;;;;477.50;162.90;;;;;;;;;;5041620;28;20039;-59
2023/04/16 13:22:29;;;;;;;444.80;158.88;;;;;;;;;;5044656;28;20580;-59
2023/04/16 13:24:54;;;;;;;451.38;170.45;;;;;;;;;;5042273;28;20404;-59
2023/04/16 13:27:19;;;;;;;460.48;169.45;;;;;;;;;;5045366;28;20036;-57
2023/04/16 13:29:45;;;;;;;397.92;134.98;;;;;;;;;;5046025;28;20063;-59
2023/04/16 13:35:13;;;;;;;449.20;158.48;;;;;;;;;;5045309;28;20035;-59
2023/04/16 13:37:38;;;;;;;436.58;145.27;;;;;;;;;;5048096;28;20021;-58
2023/04/16 13:40:03;;;;;;;417.38;153.57;;;;;;;;;;5044785;28;20222;-59
2023/04/16 13:42:29;;;;;;;412.52;137.65;;;;;;;;;;5044417;28;20516;-58
2023/04/16 13:44:54;;;;;;;425.05;151.55;;;;;;;;;;5046720;28;20028;-58
2023/04/16 13:47:20;;;;;;;438.98;157.35;;;;;;;;;;5044777;28;20040;-57
2023/04/16 13:49:46;;;;;;;429.47;147.27;;;;;;;;;;5043397;28;20028;-56
2023/04/16 13:52:11;;;;;;;455.33;154.43;;;;;;;;;;5044444;28;20712;-57